Time;durP1;ratioP1;P1;durP2;ratioP2;P2;SDS_P1;SDS_P2;PMS_P1;PMS_P2;Temp;Humidity;BMP_temperature;BMP_pressure;BME280_temperature;BME280_humidity;BME280_pressure;Samples;Min_cycle;Max_cycle;Signal;HPM_P1;HPM_P2
2024/04/07 00:04:05;;;;;;;1999.90;999.90;;;;;;;18.50;66.64;100697.47;10422731;28;20059;-68
2024/04/07 00:09:07;;;;;;;1999.90;999.90;;;;;;;18.55;65.93;100711.16;10438367;28;20060;-68
2024/04/07 00:14:09;;;;;;;1999.90;999.90;;;;;;;18.55;65.81;100689.09;10438416;28;20053;-68
2024/04/07 00:19:10;;;;;;;1999.90;999.90;;;;;;;18.57;66.07;100695.09;10438803;28;20049;-68
2024/04/07 00:24:12;;;;;;;1999.90;999.90;;;;;;;18.65;64.96;100716.44;10438447;28;20049;-68
2024/04/07 00:29:13;;;;;;;1999.90;999.90;;;;;;;18.66;66.11;100731.38;10438556;28;20045;-68
2024/04/07 00:34:15;;;;;;;1999.90;999.90;;;;;;;18.65;65.57;100750.91;10437895;28;20068;-68
2024/04/07 00:39:16;;;;;;;1999.90;999.90;;;;;;;18.40;67.95;100741.72;10437922;28;20057;-68
2024/04/07 00:44:18;;;;;;;1999.90;999.90;;;;;;;18.66;65.46;100739.34;10438611;28;20053;-68
2024/04/07 00:49:19;;;;;;;1999.90;999.90;;;;;;;18.41;66.95;100747.84;10439903;28;20470;-68
2024/04/07 00:54:21;;;;;;;1999.90;999.90;;;;;;;18.59;64.16;100754.13;10429442;28;20563;-68
2024/04/07 00:59:23;;;;;;;1999.90;999.90;;;;;;;18.40;65.74;100781.47;10429627;28;20064;-68
2024/04/07 01:04:24;;;;;;;1999.90;999.90;;;;;;;18.57;65.51;100809.09;10429231;28;20053;-68
2024/04/07 01:09:26;;;;;;;1999.90;999.90;;;;;;;18.30;65.58;100804.50;10444914;28;20065;-68
2024/04/07 01:14:28;;;;;;;1999.90;999.90;;;;;;;18.35;65.17;100808.38;10428230;28;20060;-68
2024/04/07 01:19:29;;;;;;;1999.90;999.90;;;;;;;18.20;67.24;100817.72;10445025;28;20450;-68
2024/04/07 01:24:31;;;;;;;1999.90;999.90;;;;;;;18.11;67.10;100823.84;10444476;28;20049;-68
2024/04/07 01:29:32;;;;;;;1999.90;999.90;;;;;;;17.93;67.53;100877.47;10444373;28;20053;-68
2024/04/07 01:34:33;;;;;;;1999.90;999.90;;;;;;;17.86;67.81;100894.84;10444550;28;20048;-67
2024/04/07 01:39:35;;;;;;;1999.90;999.90;;;;;;;17.63;69.38;100895.03;10444853;28;20118;-68
2024/04/07 01:44:36;;;;;;;1999.90;999.90;;;;;;;17.46;70.45;100891.16;10444054;28;20408;-68
2024/04/07 01:49:37;;;;;;;1999.90;999.90;;;;;;;17.34;70.41;100910.72;10443484;28;20060;-68
2024/04/07 01:54:39;;;;;;;1999.90;999.90;;;;;;;17.29;72.26;100896.22;10443523;28;20049;-68
2024/04/07 01:59:40;;;;;;;1999.90;999.90;;;;;;;17.16;73.43;100899.03;10427502;28;20053;-68
2024/04/07 02:04:42;;;;;;;1999.90;999.90;;;;;;;17.11;73.94;100940.91;10409001;28;20056;-68
2024/04/07 02:09:46;;;;;;;1999.90;999.90;;;;;;;16.96;75.67;100967.66;10443317;28;20056;-68
2024/04/07 02:14:48;;;;;;;1999.90;999.90;;;;;;;16.85;76.09;100992.34;10425947;28;20503;-68
2024/04/07 02:19:52;;;;;;;1999.90;999.90;;;;;;;16.96;77.34;101017.91;10442870;28;20064;-68
2024/04/07 02:24:54;;;;;;;1999.90;999.90;;;;;;;16.78;77.62;101037.84;10449752;22;20118;-67
2024/04/07 02:29:55;;;;;;;1999.90;999.90;;;;;;;16.69;78.32;101048.22;10442086;28;20056;-67
2024/04/07 02:34:56;;;;;;;1999.90;999.90;;;;;;;16.64;78.69;101068.03;10425658;28;20057;-67
2024/04/07 02:39:59;;;;;;;1999.90;999.90;;;;;;;16.45;79.69;101066.00;10425659;28;20060;-68
2024/04/07 02:50:20;;;;;;;1999.90;999.90;;;;;;;16.38;81.01;101078.84;10427766;28;20063;-68
2024/04/07 02:55:22;;;;;;;1999.90;999.90;;;;;;;16.36;81.69;101054.34;10424446;28;20503;-68
2024/04/07 03:00:23;;;;;;;1999.90;999.90;;;;;;;16.12;82.17;101068.50;10424823;28;20053;-67
2024/04/07 03:05:25;;;;;;;1999.90;999.90;;;;;;;16.27;80.22;101049.75;10440390;28;20049;-67
2024/04/07 03:10:26;;;;;;;1999.90;999.90;;;;;;;16.44;79.33;101059.03;10424622;28;20049;-68
2024/04/07 03:15:31;;;;;;;1999.90;999.90;;;;;;;16.21;79.24;101059.03;10422964;28;20041;-68
2024/04/07 03:20:32;;;;;;;1999.90;999.90;;;;;;;16.19;77.40;101068.00;10424295;28;20102;-67
2024/04/07 03:25:33;;;;;;;1999.90;999.90;;;;;;;16.27;75.52;101089.41;10439765;28;20404;-67
2024/04/07 03:30:36;;;;;;;1999.90;999.90;;;;;;;16.24;74.95;101097.56;10439716;28;20381;-67
2024/04/07 03:35:37;;;;;;;1999.90;999.90;;;;;;;16.31;75.02;101085.56;10439753;28;20056;-68
2024/04/07 03:40:39;;;;;;;1999.90;999.90;;;;;;;16.23;75.60;101080.88;10439931;28;20057;-67
2024/04/07 03:45:41;;;;;;;1999.90;999.90;;;;;;;16.34;74.72;101064.22;10422798;28;20056;-68
2024/04/07 03:50:42;;;;;;;1999.90;999.90;;;;;;;16.14;73.22;101074.50;10439562;28;20111;-68
2024/04/07 03:55:44;;;;;;;1999.90;999.90;;;;;;;16.05;74.09;101080.47;10438884;28;20415;-68
2024/04/07 04:00:45;;;;;;;1999.90;999.90;;;;;;;16.06;72.66;101041.72;10422715;28;20450;-68
2024/04/07 04:05:53;;;;;;;1999.90;999.90;;;;;;;15.93;71.55;101070.84;10422279;28;20492;-67
2024/04/07 04:10:54;;;;;;;1999.90;999.90;;;;;;;16.08;70.01;101047.72;10438380;28;20408;-67
2024/04/07 04:15:55;;;;;;;1999.90;999.90;;;;;;;15.96;73.23;101042.41;10421909;28;20095;-68
2024/04/07 04:20:57;;;;;;;1999.90;999.90;;;;;;;15.83;71.90;101035.53;10422332;28;20052;-68
2024/04/07 04:25:58;;;;;;;1999.90;999.90;;;;;;;15.87;70.98;101036.97;10438041;28;20049;-68
2024/04/07 04:31:01;;;;;;;1999.90;999.90;;;;;;;16.01;70.22;101036.78;10437862;28;20534;-68
2024/04/07 04:36:13;;;;;;;1999.90;999.90;;;;;;;15.70;70.97;101052.28;10421448;28;20053;-68
2024/04/07 04:41:14;;;;;;;1999.90;999.90;;;;;;;15.91;68.01;101068.31;10422527;28;20053;-68
2024/04/07 04:46:15;;;;;;;1999.90;999.90;;;;;;;16.04;67.47;101073.53;10438411;28;20048;-67
2024/04/07 04:51:17;;;;;;;1999.90;999.90;;;;;;;15.96;68.86;101073.25;10437641;28;20438;-68
2024/04/07 04:56:18;;;;;;;1999.90;999.90;;;;;;;16.10;69.67;101064.28;10421455;28;20048;-68
2024/04/07 05:01:20;;;;;;;1999.90;999.90;;;;;;;15.88;67.65;101060.63;10437918;28;20064;-68
2024/04/07 05:06:21;;;;;;;1999.90;999.90;;;;;;;15.93;67.61;101071.69;10437796;28;20052;-68
2024/04/07 05:11:23;;;;;;;1999.90;999.90;;;;;;;15.97;67.82;101091.63;10421777;28;20061;-68
2024/04/07 05:16:24;;;;;;;1999.90;999.90;;;;;;;16.04;67.83;101096.44;10437361;28;20049;-68
2024/04/07 05:21:25;;;;;;;1999.90;999.90;;;;;;;15.89;66.14;101098.44;10437573;28;20049;-68
2024/04/07 05:26:27;;;;;;;1999.90;999.90;;;;;;;15.92;68.80;101106.97;10436764;28;20416;-68
2024/04/07 05:31:29;;;;;;;1999.90;999.90;;;;;;;15.86;69.75;101112.72;10437773;28;20053;-68
2024/04/07 05:36:30;;;;;;;1999.90;999.90;;;;;;;16.01;65.48;101128.38;10438740;28;20045;-68
2024/04/07 05:41:31;;;;;;;1999.90;999.90;;;;;;;16.01;66.81;101131.84;10444456;28;20045;-68
2024/04/07 05:46:33;;;;;;;1999.90;999.90;;;;;;;15.91;67.36;101122.94;10427216;28;20407;-68
2024/04/07 05:51:34;;;;;;;1999.90;999.90;;;;;;;16.12;69.39;101142.47;10443437;28;20476;-68
2024/04/07 05:56:36;;;;;;;1999.90;999.90;;;;;;;15.96;69.56;101163.88;10443350;28;20045;-68
2024/04/07 06:01:37;;;;;;;1999.90;999.90;;;;;;;16.08;68.42;101177.13;10443105;28;20425;-68
2024/04/07 06:06:38;;;;;;;1999.90;999.90;;;;;;;15.93;70.31;101182.56;10426509;28;20488;-68
2024/04/07 06:11:40;;;;;;;1999.90;999.90;;;;;;;16.06;68.83;101197.53;10443478;28;20049;-68
2024/04/07 06:16:41;;;;;;;1999.90;999.90;;;;;;;16.05;67.74;101194.03;10426465;28;20063;-68
2024/04/07 06:21:43;;;;;;;1999.90;999.90;;;;;;;16.05;68.64;101201.94;10426248;28;20487;-68
2024/04/07 06:26:44;;;;;;;1999.90;999.90;;;;;;;16.18;67.18;101209.81;10442226;28;20115;-68
2024/04/07 06:31:45;;;;;;;1999.90;999.90;;;;;;;16.22;68.60;101210.44;10441975;28;20501;-68
2024/04/07 06:36:47;;;;;;;1999.90;999.90;;;;;;;16.11;69.71;101212.06;10441789;28;20053;-68
2024/04/07 06:41:48;;;;;;;1999.90;999.90;;;;;;;16.07;69.37;101213.28;10441552;28;20049;-68
2024/04/07 06:46:50;;;;;;;1999.90;999.90;;;;;;;16.33;71.33;101205.19;10441631;28;20049;-68
2024/04/07 06:51:52;;;;;;;1999.90;999.90;;;;;;;16.33;68.79;101213.13;10442132;28;20060;-68
2024/04/07 06:56:53;;;;;;;1999.90;999.90;;;;;;;16.39;68.24;101217.09;10441233;28;20049;-68
2024/04/07 07:01:54;;;;;;;1999.90;999.90;;;;;;;16.32;69.14;101216.69;10441454;28;20056;-68
2024/04/07 07:06:56;;;;;;;1999.90;999.90;;;;;;;16.22;69.75;101215.72;10440425;28;20071;-68
2024/04/07 07:11:57;;;;;;;1999.90;999.90;;;;;;;16.62;70.61;101216.19;10440374;28;20385;-68
2024/04/07 07:16:59;;;;;;;1999.90;999.90;;;;;;;16.61;68.21;101214.53;10439948;28;20404;-68
2024/04/07 07:22:00;;;;;;;1999.90;999.90;;;;;;;16.72;68.99;101229.53;10440148;28;20439;-68
2024/04/07 07:27:01;;;;;;;1999.90;999.90;;;;;;;16.69;67.98;101232.41;10439954;28;20416;-68
2024/04/07 07:32:05;;;;;;;1999.90;999.90;;;;;;;16.65;69.76;101238.91;10440517;28;20052;-68
2024/04/07 07:37:07;;;;;;;1999.90;999.90;;;;;;;17.15;69.86;101242.13;10439479;28;20488;-68
2024/04/07 07:42:08;;;;;;;1999.90;999.90;;;;;;;17.41;69.19;101263.06;10439146;28;20061;-68
2024/04/07 07:47:09;;;;;;;1999.90;999.90;;;;;;;17.81;66.82;101247.47;10439726;28;20069;-68
2024/04/07 07:52:12;;;;;;;1999.90;999.90;;;;;;;18.56;64.95;101245.75;10439538;28;20061;-68
2024/04/07 07:57:14;;;;;;;1999.90;999.90;;;;;;;18.69;63.46;101252.66;10439241;28;20056;-68
2024/04/07 08:02:16;;;;;;;1999.90;999.90;;;;;;;18.45;63.33;101253.75;10438670;28;20057;-68
2024/04/07 08:07:17;;;;;;;1999.90;999.90;;;;;;;18.48;63.14;101273.91;10422571;28;20114;-68
2024/04/07 08:12:18;;;;;;;1999.90;999.90;;;;;;;18.68;64.21;101275.72;10438466;28;20045;-68
2024/04/07 08:17:20;;;;;;;1999.90;999.90;;;;;;;19.24;64.14;101271.84;10438801;28;20068;-68
2024/04/07 08:22:21;;;;;;;1999.90;999.90;;;;;;;19.08;63.78;101272.34;10438014;28;20057;-68
2024/04/07 08:27:23;;;;;;;1999.90;999.90;;;;;;;19.70;63.10;101282.91;10422435;28;20052;-68
2024/04/07 08:32:24;;;;;;;1999.90;999.90;;;;;;;19.37;61.37;101302.66;10437936;28;20053;-68
2024/04/07 08:37:25;;;;;;;1999.90;999.90;;;;;;;19.92;61.02;101286.34;10437836;28;20436;-68
2024/04/07 08:42:28;;;;;;;1999.90;999.90;;;;;;;19.71;61.59;101284.59;10438308;28;20053;-68
2024/04/07 08:47:29;;;;;;;1999.90;999.90;;;;;;;20.00;59.33;101276.72;10421990;28;20052;-68
2024/04/07 08:52:31;;;;;;;1999.90;999.90;;;;;;;21.02;59.53;101286.06;10437348;28;20484;-68
2024/04/07 08:57:32;;;;;;;1999.90;999.90;;;;;;;20.87;59.23;101279.50;10421217;28;20056;-68
2024/04/07 09:02:34;;;;;;;1999.90;999.90;;;;;;;21.28;58.12;101278.25;10438294;28;20057;-68
2024/04/07 09:07:36;;;;;;;1999.90;999.90;;;;;;;20.40;59.74;101288.22;10421571;28;20057;-69
2024/04/07 09:12:38;;;;;;;1999.90;999.90;;;;;;;21.19;57.72;101299.59;10442233;28;20071;-68
2024/04/07 09:17:40;;;;;;;1999.90;999.90;;;;;;;20.32;59.00;101291.56;10445347;28;20081;-68
2024/04/07 09:22:41;;;;;;;1999.90;999.90;;;;;;;21.09;56.47;101288.97;10428915;28;20106;-68
2024/04/07 09:27:44;;;;;;;1999.90;999.90;;;;;;;19.52;57.92;101305.78;10445343;28;20060;-68
2024/04/07 09:32:48;;;;;;;1999.90;999.90;;;;;;;20.93;57.44;101305.53;10444860;28;20049;-68
2024/04/07 09:37:49;;;;;;;1999.90;999.90;;;;;;;20.97;58.17;101298.97;10444102;28;20389;-68
2024/04/07 09:42:56;;;;;;;1999.90;999.90;;;;;;;20.66;56.86;101298.28;10427509;28;20569;-68
2024/04/07 09:47:59;;;;;;;1999.90;999.90;;;;;;;21.24;56.63;101297.34;10427308;28;20439;-68
2024/04/07 09:53:05;;;;;;;1999.90;999.90;;;;;;;20.52;58.44;101294.22;10427662;28;20052;-68
2024/04/07 09:58:07;;;;;;;1999.90;999.90;;;;;;;22.55;57.32;101290.81;10426902;28;20455;-68
2024/04/07 10:03:09;;;;;;;1999.90;999.90;;;;;;;23.20;56.18;101294.94;10443757;28;20053;-68
2024/04/07 10:08:11;;;;;;;1999.90;999.90;;;;;;;24.72;50.06;101285.94;10426703;28;20053;-68
2024/04/07 10:13:17;;;;;;;1999.90;999.90;;;;;;;22.97;53.17;101283.94;10426844;28;20045;-68
2024/04/07 10:18:19;;;;;;;1999.90;999.90;;;;;;;21.40;51.84;101294.91;10442840;28;20407;-68
2024/04/07 10:23:27;;;;;;;1999.90;999.90;;;;;;;23.47;53.15;101287.69;10425133;28;20057;-66
2024/04/07 10:28:44;;;;;;;1999.90;999.90;;;;;;;24.01;50.92;101274.03;10426553;28;20053;-66
2024/04/07 10:33:49;;;;;;;1999.90;999.90;;;;;;;24.26;48.98;101250.81;10425420;28;20056;-66
2024/04/07 10:38:52;;;;;;;1999.90;999.90;;;;;;;23.30;50.97;101271.63;10425257;28;20053;-66
2024/04/07 10:43:53;;;;;;;1999.90;999.90;;;;;;;23.30;49.33;101276.09;10425747;28;20052;-65
2024/04/07 10:48:58;;;;;;;1999.90;999.90;;;;;;;21.51;55.85;101289.38;10441350;28;20467;-66
2024/04/07 10:54:00;;;;;;;1999.90;999.90;;;;;;;21.94;50.13;101276.41;10425004;28;20049;-65
2024/04/07 10:59:02;;;;;;;1999.90;999.90;;;;;;;21.69;56.67;101281.44;10441495;28;20060;-64
2024/04/07 11:04:03;;;;;;;1999.90;999.90;;;;;;;22.84;50.11;101275.50;10440661;28;20392;-65
2024/04/07 11:09:04;;;;;;;1999.90;999.90;;;;;;;23.43;51.98;101271.16;10424674;28;20052;-64
2024/04/07 11:14:08;;;;;;;1999.90;999.90;;;;;;;24.84;51.94;101265.84;10440117;28;20049;-65
2024/04/07 11:19:17;;;;;;;1999.90;999.90;;;;;;;25.24;49.16;101265.06;10440543;28;20060;-65
2024/04/07 11:24:19;;;;;;;1999.90;999.90;;;;;;;26.22;46.27;101255.66;10440388;28;20064;-65
2024/04/07 11:29:20;;;;;;;1999.90;999.90;;;;;;;26.85;43.39;101248.25;10440307;28;20049;-67
2024/04/07 11:34:24;;;;;;;1999.90;999.90;;;;;;;28.21;43.03;101251.31;10438564;28;20382;-66
2024/04/07 11:39:25;;;;;;;1999.90;999.90;;;;;;;26.64;42.01;101243.56;10423728;28;20053;-66
2024/04/07 11:44:27;;;;;;;1999.90;999.90;;;;;;;26.65;41.85;101239.88;10423157;28;20049;-65
2024/04/07 11:49:28;;;;;;;1999.90;999.90;;;;;;;27.00;40.20;101246.38;10439535;28;20053;-67
2024/04/07 11:54:29;;;;;;;1999.90;999.90;;;;;;;26.40;44.01;101233.88;10439472;28;20049;-70
2024/04/07 11:59:31;;;;;;;1999.90;999.90;;;;;;;27.10;40.73;101235.34;10439399;28;20091;-66
2024/04/07 12:04:32;;;;;;;1999.90;999.90;;;;;;;26.91;41.90;101233.22;10438982;28;20120;-66
2024/04/07 12:09:34;;;;;;;1999.90;999.90;;;;;;;29.57;37.47;101217.69;10422204;28;20059;-65
2024/04/07 12:14:35;;;;;;;1999.90;999.90;;;;;;;26.42;39.83;101223.78;10438474;28;20068;-65
2024/04/07 12:19:37;;;;;;;1999.90;999.90;;;;;;;26.45;36.79;101226.13;10438667;28;20060;-65
2024/04/07 12:24:39;;;;;;;1999.90;999.90;;;;;;;28.39;37.24;101234.66;10438126;28;20056;-68
2024/04/07 12:29:40;;;;;;;1999.90;999.90;;;;;;;27.92;41.79;101233.41;10421844;28;20053;-65
2024/04/07 12:34:42;;;;;;;1999.90;999.90;;;;;;;28.67;37.15;101223.91;10438007;28;20053;-68
2024/04/07 12:39:44;;;;;;;1999.90;999.90;;;;;;;28.13;38.38;101229.91;10437987;28;20064;-64
2024/04/07 12:44:45;;;;;;;1999.90;999.90;;;;;;;28.39;37.19;101205.06;10438466;28;20381;-64
2024/04/07 12:49:47;;;;;;;1999.90;999.90;;;;;;;27.85;40.24;101211.00;10445716;28;20403;-66
2024/04/07 12:54:48;;;;;;;1999.90;999.90;;;;;;;28.19;39.19;101210.28;10429689;28;20106;-66
2024/04/07 12:59:50;;;;;;;1999.90;999.90;;;;;;;28.79;34.69;101193.75;10445731;28;20386;-66
2024/04/07 13:04:52;;;;;;;1999.90;999.90;;;;;;;28.18;35.10;101176.34;10445970;28;20049;-66
2024/04/07 13:09:54;;;;;;;1999.90;999.90;;;;;;;27.56;38.22;101184.00;10445395;28;20049;-66
2024/04/07 13:14:58;;;;;;;1999.90;999.90;;;;;;;29.26;35.90;101176.75;10445690;28;20045;-66
2024/04/07 13:20:00;;;;;;;1999.90;999.90;;;;;;;28.05;35.99;101162.75;10428576;28;20048;-69
2024/04/07 13:25:02;;;;;;;1999.90;999.90;;;;;;;25.77;36.88;101166.94;10444800;28;20068;-69
2024/04/07 13:30:04;;;;;;;1999.90;999.90;;;;;;;26.11;41.84;101190.69;10444332;28;20053;-68
2024/04/07 13:35:06;;;;;;;1999.90;999.90;;;;;;;24.58;38.06;101176.88;10444608;28;20053;-69
2024/04/07 13:40:08;;;;;;;1999.90;999.90;;;;;;;24.98;40.22;101173.25;10444243;28;20082;-68
2024/04/07 13:45:10;;;;;;;1999.90;999.90;;;;;;;24.72;39.16;101168.16;10444316;28;20385;-68
2024/04/07 13:50:12;;;;;;;1999.90;999.90;;;;;;;26.14;38.19;101143.84;10444533;28;20053;-69
2024/04/07 13:55:13;;;;;;;1999.90;999.90;;;;;;;27.13;37.89;101145.44;10443812;28;20048;-69
2024/04/07 14:00:15;;;;;;;1999.90;999.90;;;;;;;28.80;33.88;101123.50;10426128;28;20044;-69
2024/04/07 14:05:17;;;;;;;1999.90;999.90;;;;;;;29.70;33.14;101099.03;10443677;28;20045;-69
2024/04/07 14:10:18;;;;;;;1999.90;999.90;;;;;;;27.89;37.10;101107.31;10442832;28;20064;-69
2024/04/07 14:15:19;;;;;;;1999.90;999.90;;;;;;;27.00;35.23;101101.28;10426500;28;20052;-69
2024/04/07 14:20:21;;;;;;;1999.90;999.90;;;;;;;25.45;39.10;101130.47;10426290;28;20404;-69
2024/04/07 14:25:22;;;;;;;1999.90;999.90;;;;;;;24.71;40.50;101146.91;10442068;28;20053;-69
2024/04/07 14:30:24;;;;;;;1999.90;999.90;;;;;;;24.09;41.76;101113.56;10442884;28;20060;-69
2024/04/07 14:35:26;;;;;;;1999.90;999.90;;;;;;;23.95;41.29;101107.06;10442193;28;20049;-69
2024/04/07 14:40:29;;;;;;;1999.90;999.90;;;;;;;23.81;42.87;101102.38;10424315;23;20072;-69
2024/04/07 14:45:31;;;;;;;1999.90;999.90;;;;;;;26.17;40.45;101108.63;10416858;28;20049;-69
2024/04/07 14:50:35;;;;;;;1999.90;999.90;;;;;;;26.08;39.29;101099.00;10417565;28;20072;-69
2024/04/07 14:55:37;;;;;;;1999.90;999.90;;;;;;;24.79;42.15;101115.56;10416644;28;20053;-69
2024/04/07 15:00:38;;;;;;;1999.90;999.90;;;;;;;23.81;44.74;101110.38;10399837;28;20061;-69
2024/04/07 15:05:41;;;;;;;1999.90;999.90;;;;;;;24.05;45.35;101118.41;10416025;28;20094;-69
2024/04/07 15:11:03;;;;;;;1999.90;999.90;;;;;;;23.65;44.73;101116.56;10399620;28;20408;-68
2024/04/07 15:16:07;;;;;;;1999.90;999.90;;;;;;;23.02;48.83;101123.25;10399432;28;20095;-69
2024/04/07 15:21:09;;;;;;;1999.90;999.90;;;;;;;22.37;46.87;101130.75;10416360;28;20057;-69
2024/04/07 15:26:12;;;;;;;1999.90;999.90;;;;;;;21.83;47.87;101104.19;10399134;28;20412;-69
2024/04/07 15:31:14;;;;;;;1999.90;999.90;;;;;;;21.91;48.10;101119.44;10398709;28;20053;-69
2024/04/07 15:36:15;;;;;;;1999.90;999.90;;;;;;;21.62;49.32;101123.19;10398417;28;20071;-68
2024/04/07 15:41:16;;;;;;;1999.90;999.90;;;;;;;21.80;47.42;101107.16;10414468;28;20108;-69
2024/04/07 15:46:18;;;;;;;1999.90;999.90;;;;;;;21.10;48.27;101091.84;10414826;28;20049;-69
2024/04/07 15:51:19;;;;;;;1999.90;999.90;;;;;;;21.26;47.70;101098.31;10382030;28;20053;-69
2024/04/07 15:56:25;;;;;;;1999.90;999.90;;;;;;;21.80;47.37;101117.00;10397821;28;20042;-69
2024/04/07 16:01:27;;;;;;;1999.90;999.90;;;;;;;21.72;48.06;101117.78;10399293;28;20050;-69
2024/04/07 16:06:28;;;;;;;1999.90;999.90;;;;;;;21.60;47.21;101116.31;10398298;28;20111;-69
2024/04/07 16:11:30;;;;;;;1999.90;999.90;;;;;;;21.54;48.59;101122.28;10414769;28;20058;-69
2024/04/07 16:16:31;;;;;;;1999.90;999.90;;;;;;;21.04;48.50;101111.06;10397439;28;20045;-69
2024/04/07 16:21:33;;;;;;;1999.90;999.90;;;;;;;20.75;49.25;101113.88;10413009;28;20064;-69
2024/04/07 16:26:34;;;;;;;1999.90;999.90;;;;;;;20.77;48.94;101098.59;10414039;28;20049;-69
2024/04/07 16:31:35;;;;;;;1999.90;999.90;;;;;;;20.34;51.50;101090.19;10413203;28;20488;-69
2024/04/07 16:36:37;;;;;;;1999.90;999.90;;;;;;;20.51;52.42;101080.63;10413418;28;20138;-69
2024/04/07 16:41:38;;;;;;;1999.90;999.90;;;;;;;19.96;56.76;101068.03;10412997;28;20080;-69
2024/04/07 16:46:41;;;;;;;1999.90;999.90;;;;;;;19.84;55.70;101074.50;10413407;28;20084;-69
2024/04/07 16:51:47;;;;;;;1999.90;999.90;;;;;;;19.91;56.82;101080.09;10397544;28;20053;-69
2024/04/07 16:56:53;;;;;;;1999.90;999.90;;;;;;;19.79;55.31;101082.88;10413157;28;20045;-69
2024/04/07 17:01:54;;;;;;;1999.90;999.90;;;;;;;19.65;57.34;101086.78;10397691;28;20080;-69
2024/04/07 17:06:55;;;;;;;1999.90;999.90;;;;;;;19.89;55.25;101079.38;10413622;28;20049;-69
2024/04/07 17:11:57;;;;;;;1999.90;999.90;;;;;;;19.60;55.51;101088.16;10413548;28;20049;-69
2024/04/07 17:16:58;;;;;;;1999.90;999.90;;;;;;;19.59;54.06;101092.66;10395890;28;20500;-69
2024/04/07 17:22:00;;;;;;;1999.90;999.90;;;;;;;19.34;55.40;101101.16;10379816;28;20448;-69
2024/04/07 17:27:01;;;;;;;1999.90;999.90;;;;;;;19.13;57.29;101102.09;10412188;28;20060;-69
2024/04/07 17:32:03;;;;;;;1999.90;999.90;;;;;;;19.11;56.68;101090.78;10415359;28;20175;-69
2024/04/07 17:37:04;;;;;;;1999.90;999.90;;;;;;;19.01;60.55;101104.00;10403109;28;20045;-69
2024/04/07 17:42:06;;;;;;;1999.90;999.90;;;;;;;18.81;62.68;101115.50;10428149;28;20060;-69
2024/04/07 17:47:07;;;;;;;1999.90;999.90;;;;;;;18.40;67.69;101117.28;10443765;28;20060;-69
2024/04/07 17:52:10;;;;;;;1999.90;999.90;;;;;;;18.49;65.22;101114.69;10427654;28;20053;-68
2024/04/07 17:57:12;;;;;;;1999.90;999.90;;;;;;;18.88;67.45;101116.72;10443657;28;20056;-68
2024/04/07 18:02:13;;;;;;;1999.90;999.90;;;;;;;18.13;67.81;101110.72;10443920;28;20060;-68
2024/04/07 18:07:18;;;;;;;1999.90;999.90;;;;;;;17.84;70.59;101111.31;10443600;28;20049;-68
2024/04/07 18:12:19;;;;;;;1999.90;999.90;;;;;;;17.92;71.76;101102.75;10443414;28;20060;-68
2024/04/07 18:17:21;;;;;;;1999.90;999.90;;;;;;;18.24;67.82;101099.19;10443329;28;20052;-68
2024/04/07 18:22:22;;;;;;;1999.90;999.90;;;;;;;18.03;68.37;101096.56;10443171;28;20115;-68
2024/04/07 18:27:24;;;;;;;1999.90;999.90;;;;;;;17.55;72.53;101090.75;10443127;28;20049;-68
2024/04/07 18:32:25;;;;;;;1999.90;999.90;;;;;;;17.45;73.03;101087.16;10426437;28;20056;-68
2024/04/07 18:37:27;;;;;;;1999.90;999.90;;;;;;;17.80;68.44;101089.53;10441754;28;20049;-68
2024/04/07 18:42:28;;;;;;;1999.90;999.90;;;;;;;17.97;69.38;101088.16;10442148;28;20106;-68
2024/04/07 18:47:32;;;;;;;1999.90;999.90;;;;;;;17.49;70.08;101095.69;10425858;28;20049;-68
2024/04/07 18:52:33;;;;;;;1999.90;999.90;;;;;;;17.86;68.57;101088.19;10425516;28;20068;-68
2024/04/07 18:57:34;;;;;;;1999.90;999.90;;;;;;;17.90;62.88;101094.09;10441253;28;20049;-68
2024/04/07 19:02:42;;;;;;;1999.90;999.90;;;;;;;17.89;64.67;101103.84;10440977;28;20056;-68
2024/04/07 19:07:44;;;;;;;1999.90;999.90;;;;;;;17.96;64.74;101101.53;10424162;28;20056;-68
2024/04/07 19:12:45;;;;;;;1999.90;999.90;;;;;;;17.73;63.66;101091.00;10424008;28;20487;-68
2024/04/07 19:17:47;;;;;;;1999.90;999.90;;;;;;;17.70;63.24;101083.34;10424317;28;20079;-69
2024/04/07 19:22:48;;;;;;;1999.90;999.90;;;;;;;17.75;64.51;101072.34;10440840;28;20057;-68
2024/04/07 19:27:50;;;;;;;1999.90;999.90;;;;;;;17.43;63.41;101070.56;10440433;28;20056;-68
2024/04/07 19:32:51;;;;;;;1999.90;999.90;;;;;;;17.72;63.79;101048.75;10440384;28;20049;-69
2024/04/07 19:37:54;;;;;;;1999.90;999.90;;;;;;;17.69;62.11;101076.34;10439721;28;20063;-68
2024/04/07 19:42:56;;;;;;;1999.90;999.90;;;;;;;17.79;61.64;101095.81;10439222;28;20049;-68
2024/04/07 19:47:57;;;;;;;1999.90;999.90;;;;;;;17.55;64.38;101090.75;10439261;28;20056;-68
2024/04/07 19:52:59;;;;;;;1999.90;999.90;;;;;;;17.63;65.78;101092.72;10438816;28;20412;-68
2024/04/07 19:58:00;;;;;;;1999.90;999.90;;;;;;;16.84;74.10;101106.13;10438126;28;20106;-68
2024/04/07 20:03:02;;;;;;;1999.90;999.90;;;;;;;16.71;83.35;101116.84;10439573;28;20044;-68
2024/04/07 20:08:04;;;;;;;1999.90;999.90;;;;;;;16.47;89.94;101127.50;10438745;28;20420;-68
2024/04/07 20:13:05;;;;;;;1999.90;999.90;;;;;;;15.98;100.00;101129.44;10438606;28;20480;-68
2024/04/07 20:18:07;;;;;;;1999.90;999.90;;;;;;;16.04;100.00;101123.69;10438338;28;20052;-68
2024/04/07 20:23:08;;;;;;;1999.90;999.90;;;;;;;15.96;100.00;101116.34;10438429;28;20045;-68
2024/04/07 20:28:10;;;;;;;1999.90;999.90;;;;;;;15.77;100.00;101108.13;10438741;28;20057;-68
2024/04/07 20:33:11;;;;;;;1999.90;999.90;;;;;;;15.74;100.00;101106.50;10438621;28;20045;-69
2024/04/07 20:38:13;;;;;;;1999.90;999.90;;;;;;;15.47;100.00;101111.19;10438210;28;20068;-68
2024/04/07 20:43:14;;;;;;;1999.90;999.90;;;;;;;15.51;100.00;101115.28;10438548;28;20049;-68
2024/04/07 20:48:16;;;;;;;1999.90;999.90;;;;;;;15.40;100.00;101106.38;10422213;28;20068;-68
2024/04/07 20:53:17;;;;;;;1999.90;999.90;;;;;;;15.25;100.00;101120.66;10438363;28;20049;-68
2024/04/07 20:58:18;;;;;;;1999.90;999.90;;;;;;;15.22;100.00;101128.78;10421637;28;20063;-68
2024/04/07 21:03:20;;;;;;;1999.90;999.90;;;;;;;15.09;100.00;101133.25;10421035;28;20045;-68
2024/04/07 21:08:21;;;;;;;1999.90;999.90;;;;;;;15.08;100.00;101140.34;10442846;28;20049;-68
2024/04/07 21:13:22;;;;;;;1999.90;999.90;;;;;;;14.97;100.00;101150.78;10446055;28;20044;-68
2024/04/07 21:18:24;;;;;;;1999.90;999.90;;;;;;;14.96;100.00;101131.50;10429022;28;20079;-68
2024/04/07 21:23:26;;;;;;;1999.90;999.90;;;;;;;14.96;100.00;101136.78;10429024;28;20059;-68
2024/04/07 21:28:27;;;;;;;1999.90;999.90;;;;;;;14.99;100.00;101143.59;10428217;28;20557;-68
2024/04/07 21:33:31;;;;;;;1999.90;999.90;;;;;;;14.79;100.00;101145.00;10444859;28;20049;-68
2024/04/07 21:38:32;;;;;;;1999.90;999.90;;;;;;;14.79;100.00;101145.00;10444126;28;20408;-68
2024/04/07 21:43:37;;;;;;;1999.90;999.90;;;;;;;14.73;100.00;101156.00;10428217;28;20064;-68
2024/04/07 21:48:38;;;;;;;1999.90;999.90;;;;;;;14.79;100.00;101155.53;10444167;28;20499;-68
2024/04/07 21:53:41;;;;;;;1999.90;999.90;;;;;;;14.80;100.00;101159.88;10443490;28;20404;-68
2024/04/07 21:58:42;;;;;;;1999.90;999.90;;;;;;;14.67;100.00;101151.97;10444060;28;20106;-68